Time;durP1;ratioP1;P1;durP2;ratioP2;P2;SDS_P1;SDS_P2;PMS_P1;PMS_P2;Temp;Humidity;BMP_temperature;BMP_pressure;BME280_temperature;BME280_humidity;BME280_pressure;Samples;Min_cycle;Max_cycle;Signal;HPM_P1;HPM_P2
2023/10/31 00:01:12;;;;;;;4.60;2.90;;;;;;;9.93;100.00;98772.03;5026342;28;20057;-44
2023/10/31 00:03:40;;;;;;;4.97;2.50;;;;;;;9.93;100.00;98760.81;5033122;28;20753;-43
2023/10/31 00:06:06;;;;;;;9.90;4.38;;;;;;;9.89;100.00;98769.66;5034092;28;20068;-43
2023/10/31 00:08:32;;;;;;;4.45;2.85;;;;;;;9.91;100.00;98786.81;5029937;28;20466;-43
2023/10/31 00:10:58;;;;;;;3.45;2.65;;;;;;;10.00;100.00;98775.16;5035389;28;20041;-42
2023/10/31 00:13:24;;;;;;;3.70;2.83;;;;;;;9.96;100.00;98782.25;5033392;28;20053;-42
2023/10/31 00:15:50;;;;;;;3.78;3.03;;;;;;;9.98;100.00;98784.78;5032037;28;20045;-42
2023/10/31 00:18:15;;;;;;;5.55;3.00;;;;;;;9.98;100.00;98788.25;5033307;28;20034;-42
2023/10/31 00:20:42;;;;;;;6.30;3.10;;;;;;;9.98;100.00;98779.59;5034245;28;20041;-43
2023/10/31 00:23:07;;;;;;;6.97;3.33;;;;;;;9.99;100.00;98792.53;5033438;28;20045;-44
2023/10/31 00:25:33;;;;;;;6.40;3.88;;;;;;;9.98;100.00;98796.03;5034475;28;20037;-43
2023/10/31 00:27:59;;;;;;;4.50;2.83;;;;;;;9.99;100.00;98795.13;5034747;28;20533;-42
2023/10/31 00:30:25;;;;;;;6.07;2.70;;;;;;;9.64;100.00;98747.41;5034906;28;20076;-44
2023/10/31 00:32:51;;;;;;;7.93;2.95;;;;;;;9.67;100.00;98752.47;5022686;28;20047;-43
2023/10/31 00:35:17;;;;;;;4.72;2.92;;;;;;;9.90;100.00;98798.13;5038006;28;20041;-44
2023/10/31 00:37:43;;;;;;;3.92;2.45;;;;;;;9.79;100.00;98782.19;5033483;28;20033;-40
2023/10/31 00:40:11;;;;;;;4.45;3.00;;;;;;;9.92;100.00;98809.28;5032815;28;20119;-42
2023/10/31 00:42:41;;;;;;;6.15;3.20;;;;;;;9.95;100.00;98829.06;5049219;28;20484;-43
2023/10/31 00:45:09;;;;;;;5.85;3.10;;;;;;;9.93;100.00;98812.72;5042342;28;20048;-43
2023/10/31 00:47:35;;;;;;;5.45;3.17;;;;;;;9.97;100.00;98814.25;5033720;28;20048;-44
2023/10/31 00:50:02;;;;;;;4.75;3.00;;;;;;;10.04;100.00;98826.91;5051016;28;20044;-41
2023/10/31 00:52:30;;;;;;;4.50;2.20;;;;;;;9.88;100.00;98807.75;5027441;28;20482;-45
2023/10/31 00:54:56;;;;;;;5.57;2.72;;;;;;;10.01;100.00;98829.63;5058747;28;20127;-42
2023/10/31 00:57:22;;;;;;;3.95;2.70;;;;;;;9.97;100.00;98829.84;5047593;28;20131;-42
2023/10/31 00:59:48;;;;;;;6.70;2.22;;;;;;;9.92;100.00;98837.84;5031750;28;20038;-42
2023/10/31 01:02:13;;;;;;;6.88;3.00;;;;;;;9.89;100.00;98840.56;5032704;28;20106;-43
2023/10/31 01:04:39;;;;;;;2.70;1.83;;;;;;;9.90;100.00;98837.06;5048310;28;20037;-43
2023/10/31 01:07:06;;;;;;;4.75;2.58;;;;;;;9.89;100.00;98840.56;5033398;28;20037;-43
2023/10/31 01:09:34;;;;;;;6.03;2.55;;;;;;;9.77;100.00;98822.97;5033737;28;20563;-42
2023/10/31 01:12:00;;;;;;;5.68;2.97;;;;;;;9.92;100.00;98845.63;5035115;28;20147;-43
2023/10/31 01:14:26;;;;;;;3.90;2.53;;;;;;;9.95;100.00;98850.69;5031986;28;20574;-42
2023/10/31 01:16:51;;;;;;;4.72;2.90;;;;;;;9.76;100.00;98824.72;5033736;28;20041;-43
2023/10/31 01:19:17;;;;;;;3.38;2.70;;;;;;;9.88;100.00;98851.88;5028914;28;20159;-43
2023/10/31 01:21:43;;;;;;;4.28;2.90;;;;;;;9.71;100.00;98824.06;5033334;28;20056;-43
2023/10/31 01:24:09;;;;;;;5.32;3.20;;;;;;;9.89;100.00;98860.53;5047736;28;20136;-43
2023/10/31 01:26:36;;;;;;;4.68;2.70;;;;;;;9.88;100.00;98857.06;5034420;28;20047;-44
2023/10/31 01:29:02;;;;;;;5.22;3.03;;;;;;;9.91;100.00;98853.47;5039070;28;20068;-43
2023/10/31 01:31:28;;;;;;;5.13;3.45;;;;;;;9.96;100.00;98872.28;5032925;28;20121;-44
2023/10/31 01:33:54;;;;;;;4.35;2.85;;;;;;;9.81;100.00;98847.03;5047945;28;20051;-44
2023/10/31 01:36:25;;;;;;;4.43;2.50;;;;;;;10.05;100.00;98883.09;5031323;28;20041;-44
2023/10/31 01:38:50;;;;;;;4.43;2.67;;;;;;;10.04;100.00;98878.00;5031548;28;20540;-43
2023/10/31 01:41:16;;;;;;;4.65;3.00;;;;;;;10.08;100.00;98884.72;5025377;28;20124;-45
2023/10/31 01:43:42;;;;;;;4.78;2.85;;;;;;;10.10;100.00;98895.91;5038744;28;20185;-44
2023/10/31 01:46:09;;;;;;;5.07;2.15;;;;;;;10.10;100.00;98888.13;5031878;28;20045;-43
2023/10/31 01:48:35;;;;;;;4.95;2.58;;;;;;;10.10;100.00;98903.69;5001957;28;20065;-43
2023/10/31 01:51:03;;;;;;;3.38;2.20;;;;;;;10.16;100.00;98903.44;5030840;28;20480;-43
2023/10/31 01:53:34;;;;;;;6.55;2.40;;;;;;;10.15;99.22;98910.34;5034268;28;20123;-42
2023/10/31 01:56:04;;;;;;;3.10;2.33;;;;;;;10.19;99.24;98911.09;5025443;28;20436;-44
2023/10/31 01:58:31;;;;;;;8.05;4.18;;;;;;;10.15;98.63;98914.72;5014888;28;20029;-44
2023/10/31 02:00:57;;;;;;;4.10;2.35;;;;;;;10.23;98.50;98912.66;5030708;28;20423;-44
2023/10/31 02:03:23;;;;;;;3.30;2.10;;;;;;;10.17;97.91;98908.56;5040715;28;20587;-43
2023/10/31 02:05:51;;;;;;;3.42;2.22;;;;;;;10.20;97.65;98924.00;5032139;28;20127;-43
2023/10/31 02:08:18;;;;;;;3.33;2.20;;;;;;;10.20;97.24;98916.22;5015984;28;20051;-43
2023/10/31 02:10:44;;;;;;;3.67;2.20;;;;;;;10.23;96.78;98925.63;5030770;28;20064;-43
2023/10/31 02:13:14;;;;;;;5.88;2.60;;;;;;;10.28;97.01;98921.06;5039524;28;20091;-43
2023/10/31 02:15:40;;;;;;;4.80;2.03;;;;;;;10.27;96.48;98927.19;5034392;28;20424;-42
2023/10/31 02:18:07;;;;;;;5.30;3.17;;;;;;;10.02;96.04;98893.63;5031979;28;20028;-44
2023/10/31 02:20:53;;;;;;;5.53;3.17;;;;;;;10.19;95.65;98921.50;5033048;28;20053;-44
2023/10/31 02:23:19;;;;;;;3.20;2.05;;;;;;;10.33;95.28;98934.69;5050748;28;20047;-44
2023/10/31 02:25:44;;;;;;;6.45;3.60;;;;;;;10.25;95.84;98923.81;5032538;28;20509;-45
2023/10/31 02:28:10;;;;;;;4.10;2.72;;;;;;;10.41;95.44;98948.19;5032106;28;20549;-44
2023/10/31 02:30:36;;;;;;;5.15;2.40;;;;;;;10.24;94.88;98924.72;5032671;28;20128;-43
2023/10/31 02:33:02;;;;;;;6.72;3.75;;;;;;;10.36;95.00;98944.13;5047211;28;20103;-44
2023/10/31 02:35:28;;;;;;;4.60;2.83;;;;;;;10.25;95.26;98921.22;5044493;28;20040;-43
2023/10/31 02:37:54;;;;;;;5.90;2.63;;;;;;;10.39;95.33;98942.22;5029725;28;20068;-43
2023/10/31 02:40:20;;;;;;;4.68;3.28;;;;;;;10.39;94.91;98955.22;5037523;28;20032;-44
2023/10/31 02:42:46;;;;;;;7.28;3.08;;;;;;;10.23;94.78;98923.03;5047902;28;20156;-44
2023/10/31 02:45:12;;;;;;;5.30;2.47;;;;;;;10.41;94.12;98966.38;5046919;28;20167;-44
2023/10/31 02:47:38;;;;;;;4.35;2.60;;;;;;;10.30;94.38;98947.00;5046749;28;20060;-43
2023/10/31 02:50:04;;;;;;;7.80;3.13;;;;;;;10.27;94.32;98934.13;5021712;28;20058;-44
2023/10/31 02:52:30;;;;;;;3.50;2.40;;;;;;;10.29;94.13;98940.09;5015540;28;20436;-43
2023/10/31 02:54:56;;;;;;;3.88;2.88;;;;;;;10.45;93.88;98957.53;5046064;28;20043;-44
2023/10/31 02:57:22;;;;;;;2.83;1.98;;;;;;;10.41;93.26;98974.19;5030365;28;20048;-43
2023/10/31 02:59:48;;;;;;;4.28;2.10;;;;;;;10.26;92.77;98969.63;5029473;28;20513;-43
2023/10/31 03:02:14;;;;;;;3.20;2.10;;;;;;;10.15;92.53;98975.28;5029861;28;20123;-45
2023/10/31 03:04:40;;;;;;;2.55;1.80;;;;;;;10.12;92.68;98977.19;5047382;28;20376;-43
2023/10/31 03:07:07;;;;;;;5.65;2.70;;;;;;;10.05;92.57;98976.59;5031476;28;20046;-43
2023/10/31 03:09:33;;;;;;;4.68;2.83;;;;;;;10.07;92.95;98974.78;5031636;28;20194;-44
2023/10/31 03:11:58;;;;;;;7.38;3.50;;;;;;;10.03;93.03;98981.03;5028287;28;20128;-42
2023/10/31 03:14:25;;;;;;;4.88;2.50;;;;;;;10.04;93.86;98984.47;5046879;28;20080;-43
2023/10/31 03:16:51;;;;;;;8.30;3.42;;;;;;;9.89;94.19;98966.97;5023951;28;20436;-41
2023/10/31 03:19:17;;;;;;;6.60;3.95;;;;;;;10.03;94.40;98987.97;5040437;28;20040;-42
2023/10/31 03:21:43;;;;;;;5.57;3.25;;;;;;;10.03;94.35;98990.56;5040146;28;20046;-42
2023/10/31 03:24:09;;;;;;;5.57;3.10;;;;;;;10.04;94.50;98992.25;5029904;28;20528;-42
2023/10/31 03:26:35;;;;;;;4.32;2.83;;;;;;;9.93;94.17;98974.53;5034025;28;20501;-46
2023/10/31 03:29:01;;;;;;;5.15;2.80;;;;;;;10.05;94.78;98993.94;5037735;28;20040;-42
2023/10/31 03:31:27;;;;;;;6.07;3.42;;;;;;;10.03;94.95;98996.59;5032952;28;20076;-43
2023/10/31 03:33:53;;;;;;;6.03;3.72;;;;;;;9.99;94.99;99005.44;5045899;28;20516;-43
2023/10/31 03:36:19;;;;;;;4.32;2.95;;;;;;;9.86;94.82;98975.72;5030389;28;20128;-43
2023/10/31 03:38:45;;;;;;;5.65;3.88;;;;;;;9.74;94.66;98964.09;5028182;28;20203;-43
2023/10/31 03:41:13;;;;;;;9.35;3.95;;;;;;;10.08;94.75;99017.19;5038474;28;20060;-44
2023/10/31 03:43:38;;;;;;;11.23;4.30;;;;;;;10.13;94.17;99016.09;5036732;28;20539;-42
2023/10/31 03:46:05;;;;;;;9.90;3.63;;;;;;;10.17;94.32;99022.00;5032830;28;20049;-44
2023/10/31 03:48:31;;;;;;;5.43;3.35;;;;;;;10.22;93.61;99019.22;5032822;28;20041;-43
2023/10/31 03:50:57;;;;;;;7.38;3.90;;;;;;;10.24;93.84;99020.84;5040638;28;20092;-43
2023/10/31 03:53:23;;;;;;;7.78;3.80;;;;;;;10.11;93.76;98999.72;5050292;28;20044;-43
2023/10/31 03:55:49;;;;;;;5.05;2.78;;;;;;;10.25;93.30;99025.13;5034630;28;20041;-42
2023/10/31 03:58:15;;;;;;;7.80;3.22;;;;;;;10.30;93.89;99027.53;5035361;28;20037;-43
2023/10/31 04:00:41;;;;;;;5.75;3.45;;;;;;;10.35;92.93;99035.97;5050735;28;20131;-44
2023/10/31 04:03:08;;;;;;;7.88;3.58;;;;;;;10.35;93.08;99028.16;5052115;28;20090;-45
2023/10/31 04:05:34;;;;;;;5.38;3.28;;;;;;;10.38;93.07;99041.00;5033557;28;20092;-47
2023/10/31 04:08:00;;;;;;;6.63;3.08;;;;;;;10.37;92.81;99041.91;5031662;28;20045;-43
2023/10/31 04:10:26;;;;;;;5.55;2.80;;;;;;;10.36;92.85;99045.44;5034131;28;20041;-43
2023/10/31 04:12:52;;;;;;;4.32;2.58;;;;;;;10.36;92.85;99040.25;5034125;28;20139;-44
2023/10/31 04:15:18;;;;;;;7.72;3.15;;;;;;;10.32;92.85;99042.13;5049301;28;20041;-43
2023/10/31 04:17:44;;;;;;;4.32;2.70;;;;;;;10.35;92.62;99041.16;5037258;28;20442;-42
2023/10/31 04:20:10;;;;;;;9.40;4.82;;;;;;;10.16;92.70;99015.97;5034075;28;20045;-42
2023/10/31 04:22:36;;;;;;;6.30;3.10;;;;;;;10.28;92.33;99045.78;5050039;28;20485;-42
2023/10/31 04:25:03;;;;;;;6.07;3.20;;;;;;;10.33;92.75;99051.59;5034107;28;20052;-43
2023/10/31 04:27:30;;;;;;;5.53;2.38;;;;;;;10.35;92.44;99064.53;5033051;28;20509;-42
2023/10/31 04:29:56;;;;;;;5.32;2.75;;;;;;;10.27;91.58;99062.25;5033686;28;20040;-42
2023/10/31 04:32:22;;;;;;;5.65;3.50;;;;;;;10.20;92.44;99069.47;5031310;28;20049;-42
2023/10/31 04:34:48;;;;;;;4.85;2.65;;;;;;;10.23;92.39;99067.66;5034526;28;20123;-42
2023/10/31 04:37:14;;;;;;;4.47;2.97;;;;;;;10.18;92.44;99063.50;5033354;28;20664;-42
2023/10/31 04:39:40;;;;;;;6.15;3.65;;;;;;;10.17;92.25;99059.22;5034773;28;20517;-43
2023/10/31 04:42:06;;;;;;;7.72;3.60;;;;;;;10.17;92.32;99069.59;5034855;28;20041;-42
2023/10/31 04:44:32;;;;;;;3.65;2.80;;;;;;;10.25;92.77;99066.69;5032898;28;20544;-44
2023/10/31 04:46:58;;;;;;;6.57;3.58;;;;;;;10.07;92.37;99044.06;5046830;28;20061;-42
2023/10/31 04:49:23;;;;;;;6.05;3.45;;;;;;;10.27;92.18;99064.00;5016467;28;20413;-42
2023/10/31 04:51:49;;;;;;;8.05;4.95;;;;;;;10.33;92.16;99071.56;5038241;28;20041;-42
2023/10/31 04:54:15;;;;;;;5.63;3.58;;;;;;;10.22;91.78;99050.38;5034109;28;21049;-42
2023/10/31 04:56:41;;;;;;;4.93;3.17;;;;;;;10.40;92.05;99075.59;5033544;28;20101;-43
2023/10/31 04:59:07;;;;;;;6.95;3.03;;;;;;;10.06;91.91;99031.97;5030875;28;20051;-44
2023/10/31 05:01:33;;;;;;;6.93;3.45;;;;;;;10.31;91.41;99083.78;5034620;28;20098;-44
2023/10/31 05:03:59;;;;;;;5.95;3.40;;;;;;;10.32;91.75;99082.84;5049589;28;20417;-44
2023/10/31 05:06:25;;;;;;;6.25;3.20;;;;;;;10.32;91.44;99094.09;5032680;28;20056;-42
2023/10/31 05:08:51;;;;;;;7.75;3.20;;;;;;;10.34;91.49;99088.84;5049153;28;20072;-45
2023/10/31 05:11:20;;;;;;;10.35;3.55;;;;;;;10.36;91.32;99089.63;5046588;28;20048;-43
2023/10/31 05:13:46;;;;;;;;;;;;;;;10.45;91.00;99099.63;5048404;28;20036;-43
2023/10/31 05:16:11;;;;;;;10.15;3.97;;;;;;;10.49;91.35;99102.00;5037346;28;20312;-43
2023/10/31 05:18:38;;;;;;;10.95;5.03;;;;;;;10.38;90.68;99074.78;5030539;28;20552;-43
2023/10/31 05:21:05;;;;;;;12.52;4.78;;;;;;;10.44;90.47;99087.53;5022096;28;20060;-43
2023/10/31 05:23:31;;;;;;;16.75;5.32;;;;;;;10.36;90.31;99064.50;5042905;28;20123;-44
2023/10/31 05:25:57;;;;;;;17.58;5.88;;;;;;;10.58;90.23;99095.56;5031931;28;20041;-45
2023/10/31 05:28:23;;;;;;;15.80;5.68;;;;;;;10.54;90.27;99101.81;5031958;28;20046;-43
2023/10/31 05:30:49;;;;;;;12.60;5.55;;;;;;;10.47;90.26;99070.03;5031779;28;20083;-43
2023/10/31 05:33:16;;;;;;;10.20;4.82;;;;;;;10.79;89.96;99104.16;5033485;28;20048;-44
2023/10/31 05:35:42;;;;;;;12.18;5.50;;;;;;;10.85;88.81;99109.94;5031945;28;20068;-44
2023/10/31 05:38:08;;;;;;;10.90;5.13;;;;;;;10.78;88.94;99097.31;5048515;28;20030;-44
2023/10/31 05:40:37;;;;;;;9.75;5.03;;;;;;;10.97;88.63;99122.41;5048616;28;20535;-43
2023/10/31 05:43:03;;;;;;;10.15;3.58;;;;;;;10.94;88.27;99139.88;5047905;28;20037;-43
2023/10/31 05:45:30;;;;;;;7.55;3.92;;;;;;;10.83;87.41;99143.00;5033728;28;20041;-42
2023/10/31 05:47:56;;;;;;;8.45;3.47;;;;;;;10.80;87.24;99144.88;5036658;28;20468;-43
2023/10/31 05:50:22;;;;;;;6.28;3.55;;;;;;;10.77;87.63;99145.84;5026922;28;20393;-42
2023/10/31 05:52:48;;;;;;;5.97;3.83;;;;;;;10.83;87.46;99147.34;5033260;28;20047;-44
2023/10/31 05:55:14;;;;;;;6.55;3.92;;;;;;;10.94;87.20;99156.34;5031367;28;20038;-44
2023/10/31 05:57:41;;;;;;;8.38;3.63;;;;;;;10.84;87.10;99156.81;5030350;28;20127;-44
2023/10/31 06:00:08;;;;;;;7.10;3.50;;;;;;;10.77;87.43;99158.00;5029602;28;20053;-43
2023/10/31 06:02:42;;;;;;;10.43;4.53;;;;;;;10.66;87.03;99160.22;5041212;28;21995;-49
2023/10/31 06:05:08;;;;;;;13.40;5.85;;;;;;;10.65;87.95;99159.38;5048274;28;20068;-43
2023/10/31 06:07:34;;;;;;;12.13;5.53;;;;;;;10.72;87.88;99160.81;5032897;28;20428;-44
2023/10/31 06:10:00;;;;;;;13.05;4.90;;;;;;;10.75;88.42;99170.22;5032599;28;20517;-41
2023/10/31 06:12:27;;;;;;;11.75;4.78;;;;;;;10.69;88.81;99167.88;5032258;28;20417;-43
2023/10/31 06:14:53;;;;;;;13.80;7.00;;;;;;;10.56;89.52;99149.38;5040685;28;20036;-44
2023/10/31 06:17:19;;;;;;;14.15;6.22;;;;;;;10.65;90.12;99171.53;5039399;28;20499;-43
2023/10/31 06:19:47;;;;;;;13.43;6.50;;;;;;;10.67;90.57;99180.13;5033293;28;20041;-42
2023/10/31 06:22:13;;;;;;;9.57;5.60;;;;;;;10.53;90.21;99163.34;5042376;28;20073;-42
2023/10/31 06:24:40;;;;;;;12.38;5.45;;;;;;;10.65;91.34;99185.38;5048951;28;20499;-44
2023/10/31 06:27:07;;;;;;;9.35;5.10;;;;;;;10.44;92.47;99168.94;5046338;28;20041;-43
2023/10/31 06:29:32;;;;;;;10.63;5.88;;;;;;;10.60;93.49;99189.91;5046608;28;20041;-43
2023/10/31 06:31:58;;;;;;;11.18;6.07;;;;;;;10.60;93.70;99189.91;5046606;28;20051;-42
2023/10/31 06:34:24;;;;;;;15.32;5.32;;;;;;;10.62;94.29;99193.31;5053072;28;20047;-42
2023/10/31 06:36:52;;;;;;;11.60;5.63;;;;;;;10.52;94.29;99168.63;5041934;28;20049;-42
2023/10/31 06:39:18;;;;;;;8.32;5.32;;;;;;;10.74;94.44;99189.31;5041102;28;20509;-41
2023/10/31 06:41:44;;;;;;;12.88;6.30;;;;;;;10.83;94.32;99192.41;5038862;28;20036;-43
2023/10/31 06:44:10;;;;;;;11.77;5.10;;;;;;;10.92;93.53;99194.59;5034325;28;20704;-42
2023/10/31 06:46:36;;;;;;;15.30;6.07;;;;;;;10.96;93.35;99196.16;5039999;28;20037;-44
2023/10/31 06:49:02;;;;;;;11.13;5.75;;;;;;;11.04;93.26;99195.81;5037659;28;20131;-42
2023/10/31 06:51:27;;;;;;;11.30;5.45;;;;;;;11.05;93.11;99195.72;5039022;28;20540;-42
2023/10/31 06:53:53;;;;;;;12.25;5.55;;;;;;;11.08;93.20;99202.56;5051217;28;20447;-43
2023/10/31 06:56:19;;;;;;;11.50;5.63;;;;;;;11.10;92.39;99179.06;5036220;28;20159;-42
2023/10/31 06:58:45;;;;;;;9.93;5.80;;;;;;;11.20;91.98;99216.81;5033890;28;20041;-43
2023/10/31 07:01:12;;;;;;;13.57;6.35;;;;;;;11.17;92.77;99212.56;5038192;28;20052;-43
2023/10/31 07:03:38;;;;;;;10.30;5.75;;;;;;;11.21;92.41;99218.47;5033199;28;20128;-52
2023/10/31 07:06:04;;;;;;;11.68;6.28;;;;;;;11.21;92.57;99228.88;5047466;28;20051;-42
2023/10/31 07:08:29;;;;;;;10.30;6.20;;;;;;;11.20;92.26;99232.41;5038374;28;20095;-42
2023/10/31 07:10:55;;;;;;;11.10;6.00;;;;;;;11.18;92.26;99236.81;5039967;28;20034;-43
2023/10/31 07:13:21;;;;;;;11.68;5.95;;;;;;;11.25;92.42;99236.47;5046783;28;20048;-42
2023/10/31 07:15:48;;;;;;;11.30;6.45;;;;;;;11.19;92.51;99215.09;5037617;28;20518;-43
2023/10/31 07:18:13;;;;;;;9.52;6.50;;;;;;;11.22;92.09;99223.59;5042810;28;20037;-42
2023/10/31 07:20:39;;;;;;;14.00;6.07;;;;;;;11.32;92.05;99250.91;5038530;28;20041;-45
2023/10/31 07:23:05;;;;;;;9.68;6.20;;;;;;;11.38;92.20;99258.44;5041026;28;20095;-44
2023/10/31 07:25:31;;;;;;;11.88;6.93;;;;;;;11.49;91.75;99260.59;5038472;28;20520;-44
2023/10/31 07:27:57;;;;;;;14.60;6.18;;;;;;;11.55;91.51;99257.72;5034786;28;20084;-42
2023/10/31 07:30:22;;;;;;;6.85;4.93;;;;;;;11.50;90.89;99266.63;5032630;28;20073;-43
2023/10/31 07:32:48;;;;;;;9.73;5.40;;;;;;;11.45;91.16;99265.09;5035218;28;20048;-45
2023/10/31 07:35:14;;;;;;;7.35;5.43;;;;;;;11.54;91.54;99276.84;5033248;28;20083;-45
2023/10/31 07:37:40;;;;;;;8.57;5.55;;;;;;;11.61;90.80;99269.59;5033291;28;20503;-45
2023/10/31 07:40:06;;;;;;;14.07;7.05;;;;;;;11.73;90.82;99276.88;5048960;28;20041;-43
2023/10/31 07:42:32;;;;;;;11.02;5.72;;;;;;;11.67;90.53;99274.53;5010903;28;20574;-45
2023/10/31 07:44:58;;;;;;;9.23;5.70;;;;;;;11.63;90.42;99280.78;5036095;28;20041;-42
2023/10/31 07:47:24;;;;;;;11.23;6.00;;;;;;;11.55;90.62;99255.09;5035694;28;20477;-43
2023/10/31 07:49:50;;;;;;;12.55;6.22;;;;;;;11.85;90.42;99284.97;5050470;28;20044;-42
2023/10/31 07:52:15;;;;;;;7.07;4.75;;;;;;;11.73;89.76;99269.91;5054756;28;20049;-45
2023/10/31 07:54:41;;;;;;;10.52;5.88;;;;;;;11.77;89.27;99297.53;5059136;28;20523;-45
2023/10/31 07:57:07;;;;;;;11.38;5.38;;;;;;;11.60;89.31;99299.16;5043375;28;20047;-45
2023/10/31 07:59:36;;;;;;;7.70;4.65;;;;;;;11.58;89.85;99296.59;5050638;28;20036;-43
2023/10/31 08:02:02;;;;;;;7.47;4.30;;;;;;;11.32;89.56;99276.94;5032728;28;20048;-42
2023/10/31 08:04:29;;;;;;;8.95;5.30;;;;;;;11.23;89.90;99277.34;5056594;28;20040;-43
2023/10/31 08:06:56;;;;;;;16.83;5.88;;;;;;;11.41;89.60;99314.72;5052237;28;20187;-43
2023/10/31 08:09:22;;;;;;;7.95;5.38;;;;;;;11.42;89.92;99319.88;5036408;28;20095;-42
2023/10/31 08:11:48;;;;;;;7.93;5.22;;;;;;;11.52;89.61;99317.69;5050797;28;20041;-43
2023/10/31 08:14:15;;;;;;;11.93;5.72;;;;;;;11.54;89.08;99320.25;5054164;28;20531;-42
2023/10/31 08:16:42;;;;;;;12.13;6.60;;;;;;;11.59;89.24;99319.13;5037912;28;20041;-42
2023/10/31 08:19:08;;;;;;;7.80;5.60;;;;;;;11.67;88.89;99287.56;5049660;28;20044;-44
2023/10/31 08:21:35;;;;;;;7.50;4.97;;;;;;;12.16;87.66;99312.22;5049937;28;20055;-44
2023/10/31 08:24:03;;;;;;;7.90;5.13;;;;;;;12.41;86.29;99302.31;5051060;28;20044;-45
2023/10/31 08:26:30;;;;;;;7.97;5.10;;;;;;;13.05;84.42;99296.56;5072514;28;20037;-44
2023/10/31 08:28:56;;;;;;;9.80;5.00;;;;;;;13.21;81.86;99296.66;5052100;28;20573;-44
2023/10/31 08:31:23;;;;;;;8.40;5.30;;;;;;;13.32;80.60;99291.72;5044494;28;20128;-43
2023/10/31 08:33:49;;;;;;;13.25;5.15;;;;;;;13.17;80.29;99305.56;5033075;28;20099;-45
2023/10/31 08:36:15;;;;;;;7.95;5.30;;;;;;;12.94;80.41;99297.09;5034833;28;20123;-44
2023/10/31 08:38:40;;;;;;;9.10;4.65;;;;;;;12.81;80.29;99288.19;5034367;28;20045;-45
2023/10/31 08:41:06;;;;;;;8.32;5.20;;;;;;;12.93;80.23;99305.84;5040064;28;20048;-44
2023/10/31 08:43:32;;;;;;;6.18;5.22;;;;;;;13.01;79.65;99308.06;5036548;28;20041;-42
2023/10/31 08:45:58;;;;;;;7.93;5.57;;;;;;;12.95;79.52;99305.75;5050522;28;20041;-44
2023/10/31 08:48:24;;;;;;;11.80;6.72;;;;;;;13.00;79.59;99309.00;5030856;28;20049;-44
2023/10/31 08:50:50;;;;;;;8.93;5.47;;;;;;;13.09;79.50;99314.59;5040127;28;20037;-43
2023/10/31 08:53:18;;;;;;;9.43;5.15;;;;;;;12.93;78.95;99302.38;5040035;28;20550;-44
2023/10/31 08:55:45;;;;;;;10.47;5.30;;;;;;;12.68;79.57;99298.38;5048804;28;20495;-41
2023/10/31 08:58:14;;;;;;;6.85;5.63;;;;;;;12.84;79.61;99321.09;5040189;28;20037;-42
2023/10/31 09:00:41;;;;;;;7.63;4.88;;;;;;;12.75;79.73;99317.19;5048373;28;20048;-42
2023/10/31 09:03:10;;;;;;;7.45;5.03;;;;;;;12.54;79.97;99293.00;5022093;28;20063;-43
2023/10/31 09:05:36;;;;;;;8.73;5.25;;;;;;;12.59;79.95;99271.91;5044830;28;20411;-42
2023/10/31 09:08:02;;;;;;;6.20;4.63;;;;;;;13.01;79.14;99308.94;5031414;28;20049;-44
2023/10/31 09:10:27;;;;;;;9.15;5.88;;;;;;;13.20;78.25;99306.25;5045467;28;20094;-45
2023/10/31 09:12:53;;;;;;;9.27;5.20;;;;;;;13.29;77.55;99291.91;5039393;28;20467;-43
2023/10/31 09:15:21;;;;;;;5.80;4.30;;;;;;;13.77;76.31;99319.81;5040092;28;20041;-43
2023/10/31 09:17:47;;;;;;;5.78;3.90;;;;;;;13.90;74.90;99324.31;5030294;28;20057;-43
2023/10/31 09:20:13;;;;;;;6.45;4.72;;;;;;;13.76;74.54;99328.59;5032060;28;20055;-43
2023/10/31 09:22:39;;;;;;;5.60;4.13;;;;;;;13.67;74.28;99329.06;5037924;28;20052;-44
2023/10/31 09:25:05;;;;;;;7.05;4.57;;;;;;;13.40;74.65;99331.31;5053457;28;20083;-46
2023/10/31 09:27:31;;;;;;;5.45;3.92;;;;;;;13.27;75.11;99330.28;5054630;28;20045;-46
2023/10/31 09:29:57;;;;;;;10.70;5.10;;;;;;;13.10;75.45;99324.09;5048206;28;20055;-42
2023/10/31 09:32:23;;;;;;;7.15;4.70;;;;;;;13.02;75.78;99323.66;5049813;28;20128;-43
2023/10/31 09:34:49;;;;;;;6.00;4.55;;;;;;;12.88;76.19;99320.03;5054590;28;20528;-44
2023/10/31 09:37:15;;;;;;;7.40;4.22;;;;;;;12.90;76.37;99320.81;5046103;28;20048;-48
2023/10/31 09:39:41;;;;;;;5.72;4.57;;;;;;;13.00;76.58;99317.66;5031560;28;20091;-45
2023/10/31 09:42:07;;;;;;;9.05;4.65;;;;;;;13.07;76.46;99319.06;5065761;28;20049;-48
2023/10/31 09:44:33;;;;;;;7.97;4.93;;;;;;;13.17;76.66;99316.84;5047245;28;20091;-45
2023/10/31 09:47:01;;;;;;;6.95;4.72;;;;;;;13.30;76.41;99320.50;5036236;28;20126;-44
2023/10/31 09:49:26;;;;;;;5.22;4.45;;;;;;;13.35;76.32;99313.28;5046282;28;20065;-47
2023/10/31 09:51:53;;;;;;;6.68;4.47;;;;;;;13.31;76.08;99287.41;5047580;28;20046;-47
2023/10/31 09:54:19;;;;;;;5.78;4.78;;;;;;;13.52;75.61;99309.81;5051694;28;20044;-51
2023/10/31 09:56:45;;;;;;;7.78;5.13;;;;;;;13.71;75.04;99314.94;5040693;28;20473;-48
2023/10/31 09:59:11;;;;;;;8.43;4.32;;;;;;;13.90;74.18;99316.47;5050858;28;20040;-49
2023/10/31 10:01:37;;;;;;;7.07;4.53;;;;;;;14.06;73.24;99319.09;5036606;28;20508;-46
2023/10/31 10:04:02;;;;;;;8.38;4.80;;;;;;;13.95;72.66;99292.69;5048099;28;20041;-48
2023/10/31 10:06:29;;;;;;;7.40;4.30;;;;;;;13.91;72.31;99292.03;5041191;28;20041;-46
2023/10/31 10:08:58;;;;;;;6.32;4.03;;;;;;;13.93;72.52;99315.44;5041125;28;20044;-50
2023/10/31 10:11:24;;;;;;;7.88;4.55;;;;;;;13.83;72.01;99322.94;5039577;28;20036;-47
2023/10/31 10:13:53;;;;;;;7.03;3.90;;;;;;;13.98;71.98;99326.50;5042879;28;20041;-49
2023/10/31 10:16:31;;;;;;;4.35;3.78;;;;;;;14.08;71.08;99324.25;5044358;28;20040;-46
2023/10/31 10:18:57;;;;;;;6.68;3.65;;;;;;;14.35;70.13;99314.88;5047270;28;20040;-46
2023/10/31 10:21:22;;;;;;;6.38;4.03;;;;;;;14.28;69.30;99269.09;5036041;28;20041;-44
2023/10/31 10:23:51;;;;;;;7.13;4.03;;;;;;;14.65;68.79;99323.69;5036104;28;20474;-46
2023/10/31 10:26:20;;;;;;;12.00;4.30;;;;;;;14.66;68.69;99317.50;5049841;28;20095;-46
2023/10/31 10:28:48;;;;;;;;;;;;;;;14.47;68.28;99284.63;5053762;28;20036;-50
2023/10/31 10:31:15;;;;;;;6.38;3.33;;;;;;;14.38;68.28;99299.06;5048472;28;19917;-45
2023/10/31 10:33:41;;;;;;;4.72;3.40;;;;;;;14.30;68.00;99272.44;5045644;28;20070;-48
2023/10/31 10:36:09;;;;;;;5.00;3.15;;;;;;;14.37;68.04;99313.91;5049341;28;20440;-51
2023/10/31 10:38:35;;;;;;;4.35;3.50;;;;;;;14.56;67.73;99318.94;5018946;28;20127;-48
2023/10/31 10:41:02;;;;;;;7.15;3.10;;;;;;;14.60;67.51;99309.97;5052944;28;20119;-48
2023/10/31 10:43:28;;;;;;;9.38;4.13;;;;;;;14.50;66.95;99302.78;5046399;28;20049;-45
2023/10/31 10:45:57;;;;;;;4.55;3.58;;;;;;;14.74;66.88;99293.50;5049659;28;20056;-45
2023/10/31 10:48:27;;;;;;;4.88;3.63;;;;;;;15.15;66.15;99285.84;5039997;28;20068;-45
2023/10/31 10:51:11;;;;;;;4.30;3.55;;;;;;;16.52;62.64;99291.28;5044855;28;20128;-47
2023/10/31 10:53:58;;;;;;;3.35;2.97;;;;;;;17.91;58.86;99288.81;5042908;28;20048;-46
2023/10/31 10:56:52;;;;;;;4.57;3.17;;;;;;;18.18;57.55;99292.13;5027080;28;20045;-45
2023/10/31 10:59:20;;;;;;;4.90;3.45;;;;;;;17.62;58.52;99288.25;5048175;28;20037;-47
2023/10/31 11:01:48;;;;;;;4.50;3.40;;;;;;;17.05;59.12;99252.78;5054921;28;20120;-47
2023/10/31 11:04:16;;;;;;;4.13;3.10;;;;;;;17.30;58.90;99289.59;5048536;28;20048;-49
2023/10/31 11:06:42;;;;;;;5.82;3.50;;;;;;;17.19;58.94;99294.72;5054161;28;20044;-43
2023/10/31 11:09:12;;;;;;;5.00;3.33;;;;;;;16.86;59.02;99301.28;5044767;28;20040;-45
2023/10/31 11:11:39;;;;;;;6.28;3.72;;;;;;;16.54;59.34;99300.72;5047497;28;20040;-47
2023/10/31 11:14:05;;;;;;;4.68;3.20;;;;;;;16.03;60.09;99297.03;5052070;28;21417;-48
2023/10/31 11:16:41;;;;;;;7.55;3.88;;;;;;;15.71;60.38;99292.94;5066788;28;20231;-48
2023/10/31 11:19:08;;;;;;;4.70;3.42;;;;;;;15.64;61.05;99289.88;5047499;28;20047;-46
2023/10/31 11:21:34;;;;;;;5.10;3.20;;;;;;;15.41;61.29;99258.09;5035267;28;20032;-48
2023/10/31 11:24:01;;;;;;;7.47;3.65;;;;;;;15.57;61.30;99299.03;5049104;28;20037;-45
2023/10/31 11:26:28;;;;;;;5.03;3.38;;;;;;;15.14;61.89;99278.94;5045292;28;20037;-46
2023/10/31 11:29:05;;;;;;;6.25;3.47;;;;;;;14.88;62.21;99279.63;5037387;28;20040;-45